createdAt,value
2023-01-20T00:01:22.419Z,97688.44
2023-01-20T00:06:27.859Z,97699.53
2023-01-20T00:11:30.318Z,97704.38
2023-01-20T00:16:32.647Z,97702.25
2023-01-20T00:21:35.246Z,97710.00
2023-01-20T00:26:36.893Z,97711.97
2023-01-20T00:31:38.958Z,97707.38
2023-01-20T00:36:40.751Z,97702.72
2023-01-20T00:41:42.404Z,97707.63
2023-01-20T00:46:44.101Z,97711.38
2023-01-20T00:51:45.824Z,97705.69
2023-01-20T00:56:47.486Z,97720.59
2023-01-20T01:01:49.259Z,97720.53
2023-01-20T01:06:51.128Z,97718.72
2023-01-20T01:11:53.087Z,97724.25
2023-01-20T01:16:57.328Z,97729.38
2023-01-20T01:21:59.164Z,97739.00
2023-01-20T01:27:00.930Z,97736.47
2023-01-20T01:32:02.670Z,97735.41
2023-01-20T01:37:04.343Z,97737.72
2023-01-20T01:42:14.055Z,97722.91
2023-01-20T01:47:15.765Z,97728.34
2023-01-20T01:52:18.820Z,97734.44
2023-01-20T01:57:20.572Z,97721.38
2023-01-20T02:02:24.011Z,97725.63
2023-01-20T02:07:26.439Z,97735.13
2023-01-20T02:12:29.617Z,97742.13
2023-01-20T02:17:44.645Z,97734.66
2023-01-20T02:23:08.235Z,97725.03
2023-01-20T02:28:15.759Z,97727.69
2023-01-20T02:33:22.184Z,97721.25
2023-01-20T02:38:34.025Z,97707.78
2023-01-20T02:43:47.278Z,97713.75
2023-01-20T02:49:09.907Z,97708.50
2023-01-20T02:54:15.709Z,97707.59
2023-01-20T02:59:23.786Z,97712.75
2023-01-20T03:04:30.059Z,97708.63
2023-01-20T03:09:37.924Z,97709.22
2023-01-20T03:14:40.033Z,97709.31
2023-01-20T03:19:41.897Z,97709.41
2023-01-20T03:24:44.784Z,97700.38
2023-01-20T03:29:46.492Z,97708.59
2023-01-20T03:34:48.225Z,97716.78
2023-01-20T03:39:50.413Z,97726.84
2023-01-20T03:44:54.656Z,97726.94
2023-01-20T03:50:06.007Z,97728.78
2023-01-20T03:55:34.373Z,97727.69
2023-01-20T04:00:40.073Z,97731.09
2023-01-20T04:05:43.986Z,97736.63
2023-01-20T04:10:48.839Z,97742.69
2023-01-20T04:15:50.610Z,97750.34
2023-01-20T04:21:04.304Z,97759.38
2023-01-20T04:26:06.147Z,97769.75
2023-01-20T04:31:11.359Z,97774.00
2023-01-20T04:36:19.855Z,97774.88
2023-01-20T04:41:21.556Z,97781.03
2023-01-20T04:46:23.383Z,97784.56
2023-01-20T04:51:25.086Z,97790.53
2023-01-20T04:56:27.202Z,97789.72
2023-01-20T05:01:29.116Z,97786.06
2023-01-20T05:06:30.919Z,97798.50
2023-01-20T05:11:32.544Z,97798.50
2023-01-20T05:16:35.064Z,97787.19
2023-01-20T05:21:36.691Z,97798.56
2023-01-20T05:26:38.430Z,97789.63
2023-01-20T05:31:43.484Z,97787.94
2023-01-20T05:36:45.454Z,97783.66
2023-01-20T05:41:47.824Z,97786.38
2023-01-20T05:46:49.646Z,97784.53
2023-01-20T05:51:51.346Z,97781.22
2023-01-20T05:56:53.060Z,97777.47
2023-01-20T06:01:54.714Z,97776.78
2023-01-20T06:06:56.425Z,97768.25
2023-01-20T06:11:58.132Z,97774.66
2023-01-20T06:16:59.969Z,97779.56
2023-01-20T06:22:01.660Z,97772.72
2023-01-20T06:27:03.328Z,97770.00
2023-01-20T06:32:05.352Z,97773.41
2023-01-20T06:37:07.023Z,97782.09
2023-01-20T06:42:08.735Z,97784.66
2023-01-20T06:47:10.491Z,97769.19
2023-01-20T06:52:12.188Z,97768.28
2023-01-20T06:57:14.125Z,97779.72
2023-01-20T07:02:15.964Z,97781.19
2023-01-20T07:07:17.701Z,97780.31
2023-01-20T07:12:19.319Z,97776.53
2023-01-20T07:17:20.982Z,97786.31
2023-01-20T07:22:22.767Z,97779.94
2023-01-20T07:27:24.556Z,97790.41
2023-01-20T07:32:30.271Z,97782.97
2023-01-20T07:37:31.893Z,97785.09
2023-01-20T07:42:33.588Z,97780.88
2023-01-20T07:47:35.392Z,97786.53
2023-01-20T07:52:37.079Z,97788.25
2023-01-20T07:57:38.886Z,97803.63
2023-01-20T08:02:40.851Z,97809.06
2023-01-20T08:07:42.595Z,97803.94
2023-01-20T08:12:44.322Z,97813.44
2023-01-20T08:17:45.964Z,97815.22
2023-01-20T08:22:47.754Z,97816.22
2023-01-20T08:27:50.260Z,97812.41
2023-01-20T08:32:52.048Z,97803.34
2023-01-20T08:37:53.824Z,97820.25
2023-01-20T08:42:55.547Z,97820.53
2023-01-20T08:47:57.238Z,97813.34
2023-01-20T08:52:58.971Z,97820.69
2023-01-20T08:58:01.534Z,97827.69
2023-01-20T09:03:03.303Z,97838.13
2023-01-20T09:08:05.513Z,97838.13
2023-01-20T09:13:07.381Z,97841.31
2023-01-20T09:18:09.179Z,97839.28
2023-01-20T09:23:10.902Z,97839.38
2023-01-20T09:28:13.736Z,97838.28
2023-01-20T09:33:15.547Z,97843.38
2023-01-20T09:38:35.912Z,97835.16
2023-01-20T09:43:55.656Z,97843.81
2023-01-20T09:49:21.872Z,97838.28
2023-01-20T09:54:29.345Z,97840.56
2023-01-20T09:59:39.793Z,97843.22
2023-01-20T10:04:51.074Z,97846.03
2023-01-20T10:10:17.524Z,97835.63
2023-01-20T10:15:26.443Z,97835.22
2023-01-20T10:20:33.951Z,97829.97
2023-01-20T10:26:04.792Z,97830.94
2023-01-20T10:31:06.602Z,97824.19
2023-01-20T10:36:19.659Z,97823.47
2023-01-20T10:41:39.612Z,97825.78
2023-01-20T10:46:57.420Z,97815.72
2023-01-20T10:52:11.318Z,97819.59
2023-01-20T10:57:15.957Z,97822.19
2023-01-20T11:02:26.141Z,97798.00
2023-01-20T11:07:29.954Z,97790.81
2023-01-20T11:12:36.821Z,97795.66
2023-01-20T11:17:38.705Z,97797.84
2023-01-20T11:22:46.698Z,97789.94
2023-01-20T11:27:48.804Z,97808.91
2023-01-20T11:33:15.952Z,97803.69
2023-01-20T11:38:26.233Z,97807.13
2023-01-20T11:43:35.832Z,97811.31
2023-01-20T11:48:37.538Z,97806.94
2023-01-20T11:53:39.356Z,97813.06
2023-01-20T11:58:50.743Z,97818.19
2023-01-20T12:04:22.081Z,97815.50
2023-01-20T12:09:30.482Z,97803.44
2023-01-20T12:14:33.445Z,97813.84
2023-01-20T12:19:50.493Z,97803.41
2023-01-20T12:25:10.688Z,97814.66
2023-01-20T12:30:37.317Z,97816.19
2023-01-20T12:35:46.393Z,97820.69
2023-01-20T12:40:55.529Z,97820.59
2023-01-20T12:46:05.588Z,97819.09
2023-01-20T12:51:50.803Z,97824.13
2023-01-20T12:57:08.529Z,97823.50
2023-01-20T13:02:12.885Z,97827.03
2023-01-20T13:07:23.822Z,97827.94
2023-01-20T13:12:52.595Z,97836.63
2023-01-20T13:18:15.637Z,97843.59
2023-01-20T13:23:31.410Z,97842.78
2023-01-20T13:28:34.349Z,97839.03
2023-01-20T13:33:37.912Z,97840.56
2023-01-20T13:38:39.735Z,97839.69
2023-01-20T13:43:44.221Z,97849.31
2023-01-20T13:49:25.933Z,97852.75
2023-01-20T13:54:32.821Z,97855.50
2023-01-20T13:59:34.538Z,97863.47
2023-01-20T14:04:44.561Z,97871.38
2023-01-20T14:09:55.544Z,97875.69
2023-01-20T14:14:57.729Z,97878.38
2023-01-20T14:19:59.384Z,97878.31
2023-01-20T14:25:01.900Z,97874.75
2023-01-20T14:30:16.107Z,97892.22
2023-01-20T14:35:24.969Z,97898.25
2023-01-20T14:40:36.007Z,97895.53
2023-01-20T14:45:38.053Z,97902.53
2023-01-20T14:50:40.968Z,97905.13
2023-01-20T14:56:02.033Z,97906.16
2023-01-20T15:01:06.227Z,97909.66
2023-01-20T15:06:10.629Z,97907.03
2023-01-20T15:11:21.897Z,97912.34
2023-01-20T15:16:23.613Z,97911.53
2023-01-20T15:21:28.419Z,97912.69
2023-01-20T15:26:30.920Z,97922.47
2023-01-20T15:31:32.627Z,97923.00
2023-01-20T15:36:34.394Z,97924.94
2023-01-20T15:41:36.059Z,97928.88
2023-01-20T15:46:38.652Z,97928.88
2023-01-20T15:51:40.703Z,97936.38
2023-01-20T15:56:43.193Z,97947.81
2023-01-20T16:01:50.311Z,97941.53
2023-01-20T16:06:53.522Z,97952.09
2023-01-20T16:11:55.523Z,97950.41
2023-01-20T16:16:57.188Z,97957.97
2023-01-20T16:21:58.949Z,97961.56
2023-01-20T16:27:03.647Z,97959.75
2023-01-20T16:32:05.734Z,97976.09
2023-01-20T16:37:07.498Z,97968.50
2023-01-20T16:42:14.682Z,97964.94
2023-01-20T16:47:16.759Z,97982.28
2023-01-20T16:52:18.788Z,97975.47
2023-01-20T16:57:20.587Z,97986.63
2023-01-20T17:02:22.419Z,97984.06
2023-01-20T17:07:23.979Z,97988.41
2023-01-20T17:12:25.935Z,97981.78
2023-01-20T17:17:27.664Z,97982.13
2023-01-20T17:22:29.775Z,97987.59
2023-01-20T17:27:31.664Z,97992.19
2023-01-20T17:32:34.697Z,97989.66
2023-01-20T17:37:36.500Z,97986.97
2023-01-20T17:42:38.876Z,97986.03
2023-01-20T17:47:42.158Z,97993.88
2023-01-20T17:52:44.067Z,97992.25
2023-01-20T17:57:46.017Z,97988.63
2023-01-20T18:02:47.853Z,97993.88
2023-01-20T18:07:50.349Z,97995.63
2023-01-20T18:12:52.008Z,97991.28
2023-01-20T18:17:56.245Z,97998.16
2023-01-20T18:22:58.775Z,97992.84
2023-01-20T18:28:00.815Z,97994.81
2023-01-20T18:33:03.101Z,97993.75
2023-01-20T18:38:05.060Z,97999.97
2023-01-20T18:43:07.099Z,98001.75
2023-01-20T18:48:13.098Z,97999.09
2023-01-20T18:53:15.787Z,97992.06
2023-01-20T18:58:18.162Z,97987.00
2023-01-20T19:03:20.656Z,97988.81
2023-01-20T19:08:22.743Z,97999.22
2023-01-20T19:13:25.264Z,97993.69
2023-01-20T19:18:28.053Z,97995.63
2023-01-20T19:23:31.460Z,98005.16
2023-01-20T19:28:34.634Z,98006.00
2023-01-20T19:33:38.134Z,98013.63
2023-01-20T19:38:41.057Z,98010.75
2023-01-20T19:43:45.685Z,98009.69
2023-01-20T19:48:50.144Z,98005.34
2023-01-20T19:53:58.654Z,98012.53
2023-01-20T19:59:03.484Z,98012.28
2023-01-20T20:04:08.951Z,98011.81
2023-01-20T20:09:14.560Z,98011.69
2023-01-20T20:14:21.676Z,98012.72
2023-01-20T20:19:24.327Z,98006.38
2023-01-20T20:24:28.895Z,98017.75
2023-01-20T20:29:31.106Z,98019.09
2023-01-20T20:34:34.113Z,98011.69
2023-01-20T20:39:36.818Z,98016.78
2023-01-20T20:44:39.236Z,98022.34
2023-01-20T20:49:41.613Z,98035.94
2023-01-20T20:54:43.888Z,98038.81
2023-01-20T20:59:58.990Z,98038.16
2023-01-20T21:05:02.490Z,98037.56
2023-01-20T21:10:05.369Z,98045.97
2023-01-20T21:15:08.754Z,98053.81
2023-01-20T21:20:11.784Z,98050.63
2023-01-20T21:25:16.954Z,98052.00
2023-01-20T21:30:19.656Z,98052.00
2023-01-20T21:35:21.319Z,98054.34
2023-01-20T21:40:23.151Z,98055.19
2023-01-20T21:45:25.058Z,98047.50
2023-01-20T21:50:45.630Z,98063.94
2023-01-20T21:55:48.364Z,98080.31
2023-01-20T22:00:54.966Z,98083.03
2023-01-20T22:05:56.555Z,98091.34
2023-01-20T22:10:59.923Z,98098.41
2023-01-20T22:16:03.347Z,98098.19
2023-01-20T22:21:06.516Z,98087.06
2023-01-20T22:26:08.491Z,98083.47
2023-01-20T22:31:20.034Z,98079.59
2023-01-20T22:36:23.008Z,98081.38
2023-01-20T22:41:25.084Z,98086.72
2023-01-20T22:46:28.278Z,98083.31
2023-01-20T22:51:30.870Z,98091.09
2023-01-20T22:56:32.856Z,98084.41
2023-01-20T23:01:35.867Z,98095.69
2023-01-20T23:06:38.111Z,98088.03
2023-01-20T23:11:40.292Z,98092.25
2023-01-20T23:16:43.319Z,98096.84
2023-01-20T23:21:45.070Z,98088.69
2023-01-20T23:26:46.827Z,98096.91
2023-01-20T23:31:48.537Z,98092.56
2023-01-20T23:36:50.367Z,98087.56
2023-01-20T23:41:53.012Z,98083.09
2023-01-20T23:46:54.636Z,98075.47
2023-01-20T23:51:56.258Z,98057.06
2023-01-20T23:56:57.918Z,98057.03
